createdAt,value
2023-11-25T00:01:38.501Z,87.00
2023-11-25T00:04:07.067Z,86.90
2023-11-25T00:06:34.734Z,86.80
2023-11-25T00:09:02.501Z,86.80
2023-11-25T00:11:30.405Z,87.00
2023-11-25T00:13:58.042Z,87.20
2023-11-25T00:16:25.548Z,87.30
2023-11-25T00:18:53.119Z,87.10
2023-11-25T00:21:20.620Z,86.90
2023-11-25T00:23:48.821Z,87.00
2023-11-25T00:26:16.289Z,87.30
2023-11-25T00:28:53.763Z,87.40
2023-11-25T00:31:21.488Z,87.50
2023-11-25T00:33:49.295Z,87.40
2023-11-25T00:36:16.834Z,87.30
2023-11-25T00:38:44.597Z,87.30
2023-11-25T00:41:12.654Z,87.30
2023-11-25T00:43:40.292Z,87.40
2023-11-25T00:46:08.883Z,87.50
2023-11-25T00:48:36.954Z,87.70
2023-11-25T00:51:05.060Z,87.50
2023-11-25T00:53:32.778Z,87.40
2023-11-25T00:56:01.526Z,87.40
2023-11-25T00:58:29.276Z,87.60
2023-11-25T01:00:56.926Z,87.70
2023-11-25T01:03:25.712Z,87.70
2023-11-25T01:05:54.411Z,87.70
2023-11-25T01:08:22.822Z,87.70
2023-11-25T01:10:50.414Z,87.90
2023-11-25T01:13:18.057Z,88.10
2023-11-25T01:15:45.982Z,88.00
2023-11-25T01:18:14.151Z,87.80
2023-11-25T01:20:41.659Z,87.90
2023-11-25T01:23:09.341Z,88.00
2023-11-25T01:25:36.967Z,88.10
2023-11-25T01:28:05.225Z,88.20
2023-11-25T01:30:34.184Z,88.20
2023-11-25T01:33:03.798Z,88.30
2023-11-25T01:35:31.368Z,88.60
2023-11-25T01:37:58.964Z,88.50
2023-11-25T01:40:26.666Z,88.40
2023-11-25T01:42:59.102Z,88.50
2023-11-25T01:45:26.942Z,88.50
2023-11-25T01:47:56.027Z,88.50
2023-11-25T01:50:24.241Z,88.50
2023-11-25T01:52:54.384Z,88.50
2023-11-25T01:55:23.348Z,88.50
2023-11-25T01:57:51.065Z,88.70
2023-11-25T02:00:19.153Z,88.70
2023-11-25T02:02:50.646Z,88.70
2023-11-25T02:05:18.395Z,88.70
2023-11-25T02:07:46.493Z,88.70
2023-11-25T02:10:14.449Z,88.70
2023-11-25T02:12:42.017Z,88.70
2023-11-25T02:15:12.458Z,88.80
2023-11-25T02:17:42.026Z,88.90
2023-11-25T02:20:11.653Z,88.70
2023-11-25T02:22:39.444Z,88.70
2023-11-25T02:25:07.368Z,88.60
2023-11-25T02:27:35.888Z,88.70
2023-11-25T02:30:07.314Z,88.90
2023-11-25T02:32:35.126Z,89.00
2023-11-25T02:35:02.734Z,88.90
2023-11-25T02:37:31.570Z,88.80
2023-11-25T02:39:59.102Z,88.90
2023-11-25T02:42:27.428Z,89.10
2023-11-25T02:44:56.937Z,89.00
2023-11-25T02:47:24.712Z,88.80
2023-11-25T02:49:52.310Z,88.90
2023-11-25T02:52:20.850Z,89.00
2023-11-25T02:54:49.268Z,89.00
2023-11-25T02:57:20.317Z,89.20
2023-11-25T02:59:48.326Z,89.20
2023-11-25T03:02:17.275Z,89.20
2023-11-25T03:04:46.839Z,89.20
2023-11-25T03:07:15.152Z,89.20
2023-11-25T03:09:46.151Z,89.20
2023-11-25T03:12:13.679Z,89.20
2023-11-25T03:14:41.279Z,89.20
2023-11-25T03:17:10.118Z,89.10
2023-11-25T03:19:38.353Z,89.10
2023-11-25T03:22:06.034Z,89.00
2023-11-25T03:24:33.634Z,89.10
2023-11-25T03:27:01.251Z,89.30
2023-11-25T03:29:28.970Z,89.40
2023-11-25T03:31:57.543Z,89.40
2023-11-25T03:34:26.764Z,89.40
2023-11-25T03:36:54.500Z,89.50
2023-11-25T03:39:22.974Z,89.40
2023-11-25T03:41:50.628Z,89.50
2023-11-25T03:44:18.107Z,89.40
2023-11-25T03:46:46.243Z,89.30
2023-11-25T03:49:15.265Z,89.40
2023-11-25T03:51:42.955Z,89.50
2023-11-25T03:54:10.530Z,89.50
2023-11-25T03:56:38.418Z,89.50
2023-11-25T03:59:05.996Z,89.30
2023-11-25T04:01:33.953Z,89.50
2023-11-25T04:04:03.073Z,89.70
2023-11-25T04:06:31.731Z,89.60
2023-11-25T04:08:59.447Z,89.60
2023-11-25T04:11:27.011Z,89.50
2023-11-25T04:13:58.406Z,89.40
2023-11-25T04:16:25.948Z,89.50
2023-11-25T04:18:53.544Z,89.60
2023-11-25T04:21:24.823Z,89.60
2023-11-25T04:23:56.935Z,89.70
2023-11-25T04:26:26.051Z,89.70
2023-11-25T04:28:54.008Z,89.70
2023-11-25T04:31:21.843Z,89.70
2023-11-25T04:33:49.958Z,89.70
2023-11-25T04:36:19.961Z,89.70
2023-11-25T04:38:47.771Z,89.70
2023-11-25T04:41:15.380Z,89.80
2023-11-25T04:43:43.060Z,90.00
2023-11-25T04:46:10.969Z,89.90
2023-11-25T04:48:38.568Z,89.90
2023-11-25T04:51:06.217Z,90.10
2023-11-25T04:53:33.643Z,90.10
2023-11-25T04:56:01.204Z,90.10
2023-11-25T04:58:28.889Z,89.90
2023-11-25T05:00:58.689Z,89.90
2023-11-25T05:03:27.149Z,89.90
2023-11-25T05:05:54.832Z,89.90
2023-11-25T05:08:22.390Z,89.90
2023-11-25T05:10:50.252Z,89.80
2023-11-25T05:13:17.807Z,89.80
2023-11-25T05:15:46.181Z,89.90
2023-11-25T05:18:14.478Z,89.80
2023-11-25T05:20:42.004Z,89.80
2023-11-25T05:23:09.645Z,89.80
2023-11-25T05:25:37.245Z,89.90
2023-11-25T05:28:05.022Z,90.00
2023-11-25T05:30:32.613Z,90.40
2023-11-25T05:33:00.186Z,90.50
2023-11-25T05:35:27.881Z,90.50
2023-11-25T05:37:55.484Z,90.40
2023-11-25T05:40:23.082Z,90.20
2023-11-25T05:42:55.072Z,89.90
2023-11-25T05:45:28.175Z,89.80
2023-11-25T05:47:56.503Z,89.80
2023-11-25T05:50:24.505Z,89.70
2023-11-25T05:52:52.615Z,89.70
2023-11-25T05:55:20.920Z,89.70
2023-11-25T05:57:51.553Z,89.70
2023-11-25T06:00:20.381Z,89.70
2023-11-25T06:02:48.312Z,89.70
2023-11-25T06:05:17.124Z,89.70
2023-11-25T06:07:44.654Z,89.70
2023-11-25T06:10:12.673Z,89.60
2023-11-25T06:12:40.438Z,89.60
2023-11-25T06:15:08.447Z,89.60
2023-11-25T06:17:36.298Z,89.50
2023-11-25T06:20:04.248Z,89.50
2023-11-25T06:22:31.867Z,89.50
2023-11-25T06:25:01.473Z,89.50
2023-11-25T06:27:29.032Z,89.50
2023-11-25T06:29:56.750Z,89.60
2023-11-25T06:32:25.737Z,89.50
2023-11-25T06:34:53.429Z,89.60
2023-11-25T06:37:21.019Z,89.60
2023-11-25T06:39:49.846Z,89.60
2023-11-25T06:42:17.575Z,89.60
2023-11-25T06:44:48.509Z,89.60
2023-11-25T06:47:16.296Z,89.60
2023-11-25T06:49:47.492Z,89.60
2023-11-25T06:52:15.130Z,89.70
2023-11-25T06:54:42.646Z,89.70
2023-11-25T06:57:10.354Z,89.70
2023-11-25T06:59:37.944Z,89.70
2023-11-25T07:02:06.375Z,89.70
2023-11-25T07:04:33.893Z,89.70
2023-11-25T07:07:01.538Z,89.80
2023-11-25T07:09:31.276Z,90.10
2023-11-25T07:11:58.873Z,90.10
2023-11-25T07:14:26.911Z,90.20
2023-11-25T07:16:54.547Z,90.20
2023-11-25T07:19:23.447Z,90.40
2023-11-25T07:21:51.682Z,90.30
2023-11-25T07:24:20.027Z,90.20
2023-11-25T07:26:53.300Z,90.30
2023-11-25T07:29:21.168Z,90.30
2023-11-25T07:31:49.055Z,90.30
2023-11-25T07:34:16.878Z,90.40
2023-11-25T07:36:47.051Z,90.30
2023-11-25T07:39:20.758Z,90.30
2023-11-25T07:41:52.395Z,90.40
2023-11-25T07:44:20.435Z,90.40
2023-11-25T07:46:48.038Z,90.50
2023-11-25T07:49:15.697Z,90.50
2023-11-25T07:51:43.275Z,90.50
2023-11-25T07:54:10.779Z,90.50
2023-11-25T07:56:38.841Z,90.60
2023-11-25T07:59:06.918Z,90.60
2023-11-25T08:01:35.160Z,90.50
2023-11-25T08:04:02.951Z,90.30
2023-11-25T08:06:30.657Z,90.20
2023-11-25T08:08:58.579Z,90.30
2023-11-25T08:11:27.304Z,90.40
2023-11-25T08:13:55.055Z,90.40
2023-11-25T08:16:22.837Z,90.30
2023-11-25T08:18:50.557Z,90.50
2023-11-25T08:21:18.103Z,90.50
2023-11-25T08:23:45.732Z,90.60
2023-11-25T08:26:20.300Z,90.70
2023-11-25T08:28:50.163Z,90.70
2023-11-25T08:31:18.394Z,90.70
2023-11-25T08:33:46.822Z,90.80
2023-11-25T08:36:15.573Z,90.90
2023-11-25T08:38:43.183Z,90.90
2023-11-25T08:41:11.280Z,90.90
2023-11-25T08:43:39.985Z,90.90
2023-11-25T08:46:08.018Z,90.80
2023-11-25T08:48:36.136Z,90.80
2023-11-25T08:51:08.952Z,90.70
2023-11-25T08:53:37.012Z,90.60
2023-11-25T08:56:05.980Z,90.50
2023-11-25T08:58:33.989Z,90.40
2023-11-25T09:01:02.869Z,90.30
2023-11-25T09:03:30.692Z,90.20
2023-11-25T09:05:59.553Z,90.30
2023-11-25T09:08:27.825Z,90.50
2023-11-25T09:10:57.777Z,90.60
2023-11-25T09:13:25.652Z,90.60
2023-11-25T09:15:53.301Z,90.60
2023-11-25T09:18:22.023Z,90.50
2023-11-25T09:20:50.563Z,90.40
2023-11-25T09:23:18.909Z,90.30
2023-11-25T09:25:47.395Z,90.30
2023-11-25T09:28:15.887Z,90.30
2023-11-25T09:30:44.071Z,90.30
2023-11-25T09:33:12.523Z,90.40
2023-11-25T09:35:40.877Z,90.40
2023-11-25T09:38:08.952Z,90.50
2023-11-25T09:40:36.840Z,90.50
2023-11-25T09:43:04.812Z,90.60
2023-11-25T09:45:33.158Z,90.70
2023-11-25T09:48:02.459Z,90.80
2023-11-25T09:50:30.237Z,90.70
2023-11-25T09:53:00.458Z,90.70
2023-11-25T09:55:31.742Z,90.80
2023-11-25T09:58:09.318Z,90.80
2023-11-25T10:00:39.290Z,90.90
2023-11-25T10:03:09.385Z,91.00
2023-11-25T10:05:38.385Z,91.00
2023-11-25T10:08:08.131Z,91.00
2023-11-25T10:10:36.996Z,91.10
2023-11-25T10:13:07.592Z,91.10
2023-11-25T10:15:45.781Z,91.10
2023-11-25T10:18:14.422Z,91.10
2023-11-25T10:20:44.357Z,91.00
2023-11-25T10:23:21.471Z,91.00
2023-11-25T10:25:53.645Z,90.90
2023-11-25T10:28:22.270Z,91.00
2023-11-25T10:31:01.045Z,91.00
2023-11-25T10:33:29.243Z,90.90
2023-11-25T10:35:58.256Z,90.90
2023-11-25T10:38:31.056Z,91.00
2023-11-25T10:41:02.612Z,90.90
2023-11-25T10:43:34.057Z,90.80
2023-11-25T10:46:05.593Z,90.80
2023-11-25T10:48:34.202Z,90.70
2023-11-25T10:51:02.560Z,90.60
2023-11-25T10:53:31.282Z,90.60
2023-11-25T10:56:00.092Z,90.60
2023-11-25T10:58:29.692Z,90.50
2023-11-25T11:00:59.210Z,90.50
2023-11-25T11:03:42.215Z,90.60
2023-11-25T11:06:12.069Z,90.50
2023-11-25T11:08:42.635Z,90.40
2023-11-25T11:11:32.783Z,90.30
2023-11-25T11:14:14.738Z,90.10
2023-11-25T11:17:10.936Z,90.00
2023-11-25T11:19:42.438Z,89.90
2023-11-25T11:22:12.441Z,89.90
2023-11-25T11:24:56.450Z,89.90
2023-11-25T11:27:27.136Z,89.80
2023-11-25T11:30:00.299Z,89.90
2023-11-25T11:32:33.245Z,89.80
2023-11-25T11:35:02.553Z,89.80
2023-11-25T11:37:39.029Z,89.80
2023-11-25T11:40:08.239Z,89.80
2023-11-25T11:42:37.551Z,89.70
2023-11-25T11:45:13.155Z,89.60
2023-11-25T11:47:42.929Z,89.50
2023-11-25T11:50:12.217Z,89.40
2023-11-25T11:52:47.719Z,89.40
2023-11-25T11:55:37.834Z,89.30
2023-11-25T11:58:10.239Z,89.10
2023-11-25T12:00:43.608Z,89.00
2023-11-25T12:03:13.918Z,88.80
2023-11-25T12:05:47.603Z,88.70
2023-11-25T12:08:18.592Z,88.60
2023-11-25T12:10:49.948Z,88.50
2023-11-25T12:13:28.127Z,88.40
2023-11-25T12:16:02.680Z,88.20
2023-11-25T12:18:38.381Z,87.90
2023-11-25T12:21:10.952Z,87.60
2023-11-25T12:23:49.721Z,87.30
2023-11-25T12:26:24.562Z,87.10
2023-11-25T12:28:54.988Z,86.90
2023-11-25T12:31:25.015Z,86.80
2023-11-25T12:33:53.977Z,86.60
2023-11-25T12:36:24.222Z,86.50
2023-11-25T12:38:55.370Z,86.40
2023-11-25T12:41:25.237Z,86.30
2023-11-25T12:44:08.151Z,86.20
2023-11-25T12:46:42.311Z,86.00
2023-11-25T12:49:21.688Z,85.90
2023-11-25T12:51:55.539Z,85.80
2023-11-25T12:54:25.981Z,85.70
2023-11-25T12:56:59.369Z,85.50
2023-11-25T12:59:31.764Z,85.30
2023-11-25T13:02:11.814Z,85.20
2023-11-25T13:04:49.112Z,85.10
2023-11-25T13:07:35.998Z,85.00
2023-11-25T13:10:07.252Z,84.90
2023-11-25T13:12:39.062Z,84.90
2023-11-25T13:15:11.382Z,84.80
2023-11-25T13:17:42.439Z,84.80
2023-11-25T13:20:13.701Z,84.70
2023-11-25T13:22:43.950Z,84.60
2023-11-25T13:25:14.492Z,84.50
2023-11-25T13:27:44.683Z,84.40
2023-11-25T13:30:14.489Z,84.30
2023-11-25T13:32:47.185Z,84.20
2023-11-25T13:35:16.859Z,84.10
2023-11-25T13:37:46.359Z,84.10
2023-11-25T13:40:21.356Z,84.10
2023-11-25T13:42:50.832Z,84.10
2023-11-25T13:45:20.964Z,84.00
2023-11-25T13:47:51.418Z,84.00
2023-11-25T13:50:22.314Z,83.90
2023-11-25T13:52:52.254Z,83.80
2023-11-25T13:55:22.973Z,83.60
2023-11-25T13:57:56.480Z,83.40
2023-11-25T14:00:28.078Z,83.40
2023-11-25T14:03:01.423Z,83.40
2023-11-25T14:05:33.184Z,83.10
2023-11-25T14:08:03.112Z,83.00
2023-11-25T14:10:32.713Z,83.00
2023-11-25T14:13:00.726Z,83.00
2023-11-25T14:15:29.178Z,83.00
2023-11-25T14:17:57.331Z,83.10
2023-11-25T14:20:25.950Z,83.20
2023-11-25T14:22:54.500Z,83.30
2023-11-25T14:25:22.290Z,83.40
2023-11-25T14:27:50.095Z,83.30
2023-11-25T14:30:24.454Z,83.40
2023-11-25T14:32:53.251Z,83.40
2023-11-25T14:35:22.484Z,83.40
2023-11-25T14:37:55.257Z,83.50
2023-11-25T14:40:26.054Z,83.50
2023-11-25T14:42:54.964Z,83.50
2023-11-25T14:45:22.658Z,83.50
2023-11-25T14:47:50.449Z,83.60
2023-11-25T14:50:18.188Z,83.60
2023-11-25T14:52:46.026Z,83.50
2023-11-25T14:55:13.645Z,83.50
2023-11-25T14:57:41.412Z,83.60
2023-11-25T15:00:09.999Z,83.60
2023-11-25T15:02:41.144Z,83.60
2023-11-25T15:05:10.998Z,83.60
2023-11-25T15:07:38.624Z,83.70
2023-11-25T15:10:07.135Z,83.80
2023-11-25T15:12:35.771Z,83.80
2023-11-25T15:15:04.191Z,83.80
2023-11-25T15:17:32.058Z,83.90
2023-11-25T15:20:00.037Z,84.00
2023-11-25T15:22:28.588Z,84.00
2023-11-25T15:24:56.319Z,84.10
2023-11-25T15:27:24.024Z,84.20
2023-11-25T15:30:10.703Z,84.30
2023-11-25T15:32:43.857Z,84.50
2023-11-25T15:35:12.186Z,84.60
2023-11-25T15:37:40.444Z,84.70
2023-11-25T15:40:09.789Z,84.80
2023-11-25T15:42:37.683Z,84.90
2023-11-25T15:45:05.780Z,85.00
2023-11-25T15:47:34.450Z,85.10
2023-11-25T15:50:02.091Z,85.10
2023-11-25T15:52:29.711Z,85.20
2023-11-25T15:54:57.463Z,85.40
2023-11-25T15:57:25.324Z,85.50
2023-11-25T15:59:53.007Z,85.60
2023-11-25T16:02:21.107Z,85.70
2023-11-25T16:04:52.554Z,85.80
2023-11-25T16:07:22.251Z,85.90
2023-11-25T16:09:50.049Z,85.90
2023-11-25T16:12:17.671Z,86.00
2023-11-25T16:14:45.253Z,86.00
2023-11-25T16:17:14.523Z,86.10
2023-11-25T16:19:42.679Z,86.20
2023-11-25T16:22:10.578Z,86.30
2023-11-25T16:24:39.192Z,86.40
2023-11-25T16:27:06.689Z,86.40
2023-11-25T16:29:34.379Z,86.50
2023-11-25T16:32:03.607Z,86.60
2023-11-25T16:34:31.622Z,86.70
2023-11-25T16:36:59.580Z,86.80
2023-11-25T16:39:29.252Z,86.90
2023-11-25T16:41:59.136Z,86.90
2023-11-25T16:44:26.933Z,87.00
2023-11-25T16:46:54.572Z,87.00
2023-11-25T16:49:22.249Z,87.20
2023-11-25T16:51:50.141Z,87.20
2023-11-25T16:54:17.732Z,87.30
2023-11-25T16:56:45.267Z,87.40
2023-11-25T16:59:12.801Z,87.40
2023-11-25T17:01:43.367Z,87.40
2023-11-25T17:04:11.230Z,87.50
2023-11-25T17:06:39.569Z,87.60
2023-11-25T17:09:07.407Z,87.70
2023-11-25T17:11:36.533Z,87.70
2023-11-25T17:14:04.650Z,87.70
2023-11-25T17:16:32.479Z,87.70
2023-11-25T17:19:00.047Z,87.70
2023-11-25T17:21:28.315Z,87.80
2023-11-25T17:23:57.177Z,88.00
2023-11-25T17:26:26.333Z,88.10
2023-11-25T17:28:54.516Z,88.20
2023-11-25T17:31:23.367Z,88.30
2023-11-25T17:33:52.192Z,88.20
2023-11-25T17:36:19.792Z,88.40
2023-11-25T17:38:47.285Z,88.40
2023-11-25T17:41:18.260Z,88.40
2023-11-25T17:43:49.012Z,88.40
2023-11-25T17:46:16.758Z,88.50
2023-11-25T17:48:44.411Z,88.60
2023-11-25T17:51:12.662Z,88.60
2023-11-25T17:53:40.273Z,88.60
2023-11-25T17:56:08.314Z,88.60
2023-11-25T17:58:35.860Z,88.70
2023-11-25T18:01:04.224Z,88.70
2023-11-25T18:03:33.261Z,88.80
2023-11-25T18:06:00.828Z,88.70
2023-11-25T18:08:30.047Z,88.70
2023-11-25T18:10:58.220Z,88.80
2023-11-25T18:13:26.494Z,88.90
2023-11-25T18:15:54.285Z,89.00
2023-11-25T18:18:22.435Z,89.10
2023-11-25T18:20:51.118Z,89.10
2023-11-25T18:23:18.778Z,89.10
2023-11-25T18:25:46.310Z,89.10
2023-11-25T18:28:13.848Z,89.10
2023-11-25T18:30:43.863Z,89.10
2023-11-25T18:33:11.606Z,89.20
2023-11-25T18:35:41.526Z,89.10
2023-11-25T18:38:09.922Z,89.10
2023-11-25T18:40:37.620Z,89.20
2023-11-25T18:43:05.178Z,89.20
2023-11-25T18:45:33.187Z,89.20
2023-11-25T18:48:00.897Z,89.30
2023-11-25T18:50:29.095Z,89.20
2023-11-25T18:52:56.883Z,89.20
2023-11-25T18:55:25.369Z,89.30
2023-11-25T18:57:52.882Z,89.40
2023-11-25T19:00:20.456Z,89.40
2023-11-25T19:02:49.170Z,89.40
2023-11-25T19:05:17.031Z,89.40
2023-11-25T19:07:45.687Z,89.40
2023-11-25T19:10:14.655Z,89.40
2023-11-25T19:12:42.404Z,89.30
2023-11-25T19:15:10.311Z,89.30
2023-11-25T19:17:39.903Z,89.20
2023-11-25T19:20:08.498Z,89.20
2023-11-25T19:22:37.987Z,89.30
2023-11-25T19:25:06.226Z,89.30
2023-11-25T19:27:34.213Z,89.40
2023-11-25T19:30:01.796Z,89.40
2023-11-25T19:32:29.719Z,89.40
2023-11-25T19:34:57.231Z,89.40
2023-11-25T19:37:25.793Z,89.40
2023-11-25T19:39:53.562Z,89.50
2023-11-25T19:42:21.313Z,89.50
2023-11-25T19:44:49.653Z,89.50
2023-11-25T19:47:18.166Z,89.50
2023-11-25T19:49:45.823Z,89.60
2023-11-25T19:52:13.635Z,89.80
2023-11-25T19:54:41.186Z,89.70
2023-11-25T19:57:10.511Z,89.70
2023-11-25T19:59:38.003Z,89.80
2023-11-25T20:02:05.927Z,89.80
2023-11-25T20:04:33.534Z,89.80
2023-11-25T20:07:01.397Z,89.90
2023-11-25T20:09:28.996Z,89.90
2023-11-25T20:11:59.129Z,89.90
2023-11-25T20:14:26.746Z,89.90
2023-11-25T20:16:55.071Z,89.90
2023-11-25T20:19:22.651Z,89.90
2023-11-25T20:21:53.825Z,89.90
2023-11-25T20:24:21.580Z,89.90
2023-11-25T20:26:49.409Z,89.80
2023-11-25T20:29:17.070Z,89.90
2023-11-25T20:31:46.190Z,89.90
2023-11-25T20:34:14.089Z,90.00
2023-11-25T20:36:42.348Z,90.00
2023-11-25T20:39:10.548Z,90.00
2023-11-25T20:41:39.023Z,90.10
2023-11-25T20:44:08.839Z,90.10
2023-11-25T20:46:37.045Z,90.10
2023-11-25T20:49:06.091Z,90.10
2023-11-25T20:51:36.153Z,90.20
2023-11-25T20:54:04.169Z,90.20
2023-11-25T20:56:32.029Z,90.20
2023-11-25T20:59:01.913Z,90.20
2023-11-25T21:01:29.934Z,90.10
2023-11-25T21:03:58.404Z,90.10
2023-11-25T21:06:25.992Z,90.10
2023-11-25T21:08:53.575Z,90.10
2023-11-25T21:11:21.269Z,90.20
2023-11-25T21:13:49.116Z,90.20
2023-11-25T21:16:17.006Z,90.30
2023-11-25T21:18:44.692Z,90.30
2023-11-25T21:21:12.399Z,90.30
2023-11-25T21:23:40.143Z,90.40
2023-11-25T21:26:09.051Z,90.40
2023-11-25T21:28:36.643Z,90.50
2023-11-25T21:31:04.180Z,90.50
2023-11-25T21:33:31.743Z,90.50
2023-11-25T21:35:59.434Z,90.60
2023-11-25T21:38:31.324Z,90.60
2023-11-25T21:40:59.092Z,90.60
2023-11-25T21:43:27.247Z,90.60
2023-11-25T21:45:55.034Z,90.60
2023-11-25T21:48:23.527Z,90.70
2023-11-25T21:50:51.326Z,90.60
2023-11-25T21:53:19.196Z,90.60
2023-11-25T21:55:46.902Z,90.60
2023-11-25T21:58:14.380Z,90.60
2023-11-25T22:00:42.058Z,90.60
2023-11-25T22:03:10.874Z,90.60
2023-11-25T22:05:39.516Z,90.60
2023-11-25T22:08:07.220Z,90.60
2023-11-25T22:10:40.757Z,90.60
2023-11-25T22:13:08.713Z,90.60
2023-11-25T22:15:37.784Z,90.60
2023-11-25T22:18:08.004Z,90.60
2023-11-25T22:20:35.896Z,90.60
2023-11-25T22:23:03.444Z,90.60
2023-11-25T22:25:38.542Z,90.60
2023-11-25T22:28:08.902Z,90.60
2023-11-25T22:30:36.409Z,90.60
2023-11-25T22:33:04.580Z,90.60
2023-11-25T22:35:38.528Z,90.60
2023-11-25T22:38:11.781Z,90.60
2023-11-25T22:40:39.926Z,90.70
2023-11-25T22:43:07.633Z,90.70
2023-11-25T22:45:35.613Z,90.70
2023-11-25T22:48:03.636Z,90.70
2023-11-25T22:50:31.173Z,90.70
2023-11-25T22:52:58.840Z,90.70
2023-11-25T22:55:27.372Z,90.70
2023-11-25T22:57:55.326Z,90.70
2023-11-25T23:00:31.140Z,90.70
2023-11-25T23:02:59.710Z,90.80
2023-11-25T23:05:27.954Z,90.90
2023-11-25T23:07:55.843Z,90.90
2023-11-25T23:10:23.841Z,90.90
2023-11-25T23:12:52.040Z,91.00
2023-11-25T23:15:19.722Z,91.00
2023-11-25T23:17:47.830Z,91.10
2023-11-25T23:20:15.442Z,91.10
2023-11-25T23:22:44.157Z,91.00
2023-11-25T23:25:12.098Z,91.00
2023-11-25T23:27:39.751Z,91.00
2023-11-25T23:30:07.576Z,91.10
2023-11-25T23:32:35.351Z,91.10
2023-11-25T23:35:03.175Z,91.10
2023-11-25T23:37:32.270Z,91.20
2023-11-25T23:40:00.827Z,91.20
2023-11-25T23:42:28.675Z,91.20
2023-11-25T23:44:56.374Z,91.20
2023-11-25T23:47:24.303Z,91.20
2023-11-25T23:49:52.539Z,91.20
2023-11-25T23:52:20.422Z,91.20
2023-11-25T23:54:48.001Z,91.20
2023-11-25T23:57:16.229Z,91.30
2023-11-25T23:59:43.828Z,91.30
